createdAt,value
2017-12-31T00:00:26.322Z,4.83
2017-12-31T00:02:53.769Z,4.60
2017-12-31T00:05:21.196Z,6.77
2017-12-31T00:07:48.623Z,4.80
2017-12-31T00:10:16.055Z,5.20
2017-12-31T00:12:43.488Z,4.70
2017-12-31T00:15:10.912Z,4.87
2017-12-31T00:17:38.735Z,4.63
2017-12-31T00:20:06.163Z,4.67
2017-12-31T00:22:33.588Z,4.93
2017-12-31T00:25:01.408Z,5.67
2017-12-31T00:27:28.848Z,4.60
2017-12-31T00:29:56.271Z,6.47
2017-12-31T00:32:23.690Z,5.97
2017-12-31T00:34:51.137Z,4.50
2017-12-31T00:37:18.559Z,5.20
2017-12-31T00:39:45.987Z,5.33
2017-12-31T00:42:13.775Z,5.00
2017-12-31T00:44:41.199Z,4.77
2017-12-31T00:47:08.631Z,5.77
2017-12-31T00:49:36.159Z,5.80
2017-12-31T00:52:03.584Z,5.17
2017-12-31T00:54:31.003Z,5.80
2017-12-31T00:56:58.943Z,4.57
2017-12-31T00:59:26.380Z,4.53
2017-12-31T01:01:53.802Z,5.13
2017-12-31T01:04:21.245Z,6.33
2017-12-31T01:06:49.059Z,4.60
2017-12-31T01:09:16.490Z,6.03
2017-12-31T01:11:43.915Z,5.50
2017-12-31T01:14:11.743Z,6.73
2017-12-31T01:16:39.190Z,5.10
2017-12-31T01:19:06.620Z,5.30
2017-12-31T01:21:34.060Z,7.30
2017-12-31T01:24:01.481Z,6.00
2017-12-31T01:26:28.907Z,5.40
2017-12-31T01:28:56.366Z,5.97
2017-12-31T01:31:23.790Z,4.60
2017-12-31T01:33:51.219Z,4.90
2017-12-31T01:36:18.664Z,5.33
2017-12-31T01:38:46.483Z,5.10
2017-12-31T01:41:13.917Z,5.17
2017-12-31T01:43:41.343Z,7.40
2017-12-31T01:46:09.167Z,6.07
2017-12-31T01:48:37.502Z,5.47
2017-12-31T01:51:04.932Z,5.20
2017-12-31T01:53:32.755Z,4.63
2017-12-31T01:56:00.297Z,5.50
2017-12-31T01:58:27.723Z,4.63
2017-12-31T02:00:55.151Z,5.37
2017-12-31T02:03:22.974Z,7.07
2017-12-31T02:05:50.419Z,4.90
2017-12-31T02:08:17.852Z,5.97
2017-12-31T02:10:45.284Z,7.33
2017-12-31T02:13:13.115Z,6.10
2017-12-31T02:15:40.755Z,6.20
2017-12-31T02:18:08.183Z,7.20
2017-12-31T02:20:35.613Z,5.97
2017-12-31T02:23:03.035Z,5.03
2017-12-31T02:25:30.466Z,5.20
2017-12-31T02:27:57.903Z,9.07
2017-12-31T02:30:25.330Z,5.70
2017-12-31T02:32:53.155Z,4.60
2017-12-31T02:35:20.599Z,5.63
2017-12-31T02:37:48.031Z,5.47
2017-12-31T02:40:15.460Z,4.93
2017-12-31T02:42:43.476Z,4.63
2017-12-31T02:45:10.909Z,5.50
2017-12-31T02:47:38.330Z,4.63
2017-12-31T02:50:05.764Z,6.20
2017-12-31T02:52:33.191Z,5.40
2017-12-31T02:55:00.615Z,5.90
2017-12-31T02:57:28.047Z,6.43
2017-12-31T02:59:55.469Z,4.67
2017-12-31T03:02:22.908Z,4.97
2017-12-31T03:04:50.336Z,5.17
2017-12-31T03:07:17.759Z,6.20
2017-12-31T03:09:45.195Z,5.10
2017-12-31T03:12:12.624Z,5.20
2017-12-31T03:14:40.052Z,4.70
2017-12-31T03:17:08.355Z,5.17
2017-12-31T03:19:35.783Z,6.27
2017-12-31T03:22:03.207Z,6.20
2017-12-31T03:24:30.632Z,5.67
2017-12-31T03:26:58.059Z,6.17
2017-12-31T03:29:25.483Z,4.50
2017-12-31T03:31:53.304Z,5.77
2017-12-31T03:34:20.735Z,4.67
2017-12-31T03:36:48.160Z,5.20
2017-12-31T03:39:16.011Z,5.60
2017-12-31T03:41:43.698Z,4.80
2017-12-31T03:44:11.124Z,4.83
2017-12-31T03:46:38.543Z,4.87
2017-12-31T03:49:05.992Z,4.40
2017-12-31T03:51:33.415Z,4.60
2017-12-31T03:54:00.843Z,5.77
2017-12-31T03:56:28.287Z,5.17
2017-12-31T03:58:55.715Z,5.50
2017-12-31T04:01:23.139Z,4.87
2017-12-31T04:03:50.584Z,4.67
2017-12-31T04:06:18.403Z,5.30
2017-12-31T04:08:45.822Z,4.97
2017-12-31T04:11:13.252Z,5.00
2017-12-31T04:13:41.067Z,5.00
2017-12-31T04:16:08.494Z,5.53
2017-12-31T04:18:36.044Z,5.40
2017-12-31T04:21:03.467Z,5.17
2017-12-31T04:23:30.901Z,4.70
2017-12-31T04:25:58.340Z,4.93
2017-12-31T04:28:25.768Z,6.03
2017-12-31T04:30:53.189Z,4.70
2017-12-31T04:33:21.009Z,4.50
2017-12-31T04:35:48.439Z,5.07
2017-12-31T04:38:15.867Z,5.50
2017-12-31T04:40:43.686Z,5.27
2017-12-31T04:43:11.124Z,7.63
2017-12-31T04:45:38.555Z,5.20
2017-12-31T04:48:05.983Z,5.30
2017-12-31T04:50:33.411Z,4.93
2017-12-31T04:53:00.872Z,4.37
2017-12-31T04:55:28.303Z,5.07
2017-12-31T04:57:55.740Z,4.80
2017-12-31T05:00:23.523Z,5.33
2017-12-31T05:02:50.951Z,4.60
2017-12-31T05:05:18.381Z,5.07
2017-12-31T05:07:46.211Z,4.90
2017-12-31T05:10:13.647Z,4.50
2017-12-31T05:12:41.083Z,6.00
2017-12-31T05:15:08.527Z,5.87
2017-12-31T05:17:35.952Z,4.67
2017-12-31T05:20:03.376Z,5.70
2017-12-31T05:22:30.803Z,5.40
2017-12-31T05:24:58.251Z,5.13
2017-12-31T05:27:25.675Z,5.77
2017-12-31T05:29:53.111Z,5.90
2017-12-31T05:32:20.540Z,5.47
2017-12-31T05:34:47.973Z,5.23
2017-12-31T05:37:15.675Z,5.33
2017-12-31T05:39:43.110Z,6.57
2017-12-31T05:42:10.540Z,5.47
2017-12-31T05:44:38.074Z,4.57
2017-12-31T05:47:05.895Z,6.23
2017-12-31T05:49:34.159Z,6.43
2017-12-31T05:52:01.592Z,7.27
2017-12-31T05:54:29.027Z,5.20
2017-12-31T05:56:56.863Z,5.50
2017-12-31T05:59:24.283Z,5.37
2017-12-31T06:01:51.719Z,5.33
2017-12-31T06:04:19.147Z,5.63
2017-12-31T06:06:46.972Z,5.47
2017-12-31T06:09:14.425Z,5.67
2017-12-31T06:11:41.852Z,6.30
2017-12-31T06:14:09.272Z,6.10
2017-12-31T06:16:37.099Z,5.27
2017-12-31T06:19:05.359Z,4.80
2017-12-31T06:21:33.290Z,5.87
2017-12-31T06:24:01.117Z,8.27
2017-12-31T06:26:28.711Z,7.20
2017-12-31T06:28:56.526Z,5.90
2017-12-31T06:31:23.962Z,6.67
2017-12-31T06:33:51.407Z,6.63
2017-12-31T06:36:18.836Z,5.83
2017-12-31T06:38:46.651Z,5.17
2017-12-31T06:41:14.089Z,5.50
2017-12-31T06:43:41.514Z,5.93
2017-12-31T06:46:09.335Z,5.23
2017-12-31T06:48:36.779Z,5.00
2017-12-31T06:51:04.198Z,6.03
2017-12-31T06:53:31.631Z,5.60
2017-12-31T06:55:59.452Z,5.30
2017-12-31T06:58:26.890Z,5.77
2017-12-31T07:00:54.314Z,6.33
2017-12-31T07:03:22.136Z,5.40
2017-12-31T07:05:49.882Z,6.60
2017-12-31T07:08:17.302Z,5.10
2017-12-31T07:10:44.732Z,6.30
2017-12-31T07:13:12.163Z,5.90
2017-12-31T07:15:39.595Z,6.63
2017-12-31T07:18:07.056Z,5.10
2017-12-31T07:20:34.469Z,6.07
2017-12-31T07:23:02.439Z,5.77
2017-12-31T07:25:29.859Z,5.87
2017-12-31T07:27:57.295Z,6.20
2017-12-31T07:30:24.737Z,5.60
2017-12-31T07:32:52.167Z,5.57
2017-12-31T07:35:19.591Z,5.67
2017-12-31T07:37:48.248Z,5.83
2017-12-31T07:40:15.682Z,5.50
2017-12-31T07:42:43.124Z,6.80
2017-12-31T07:45:10.572Z,7.57
2017-12-31T07:47:37.998Z,6.87
2017-12-31T07:50:06.007Z,7.30
2017-12-31T07:52:33.436Z,6.57
2017-12-31T07:55:00.864Z,6.87
2017-12-31T07:57:28.691Z,7.30
2017-12-31T07:59:57.031Z,7.00
2017-12-31T08:02:24.460Z,8.40
2017-12-31T08:04:52.295Z,7.43
2017-12-31T08:07:19.719Z,7.03
2017-12-31T08:09:47.144Z,7.53
2017-12-31T08:12:15.359Z,7.13
2017-12-31T08:14:42.792Z,6.53
2017-12-31T08:17:10.222Z,6.17
2017-12-31T08:19:38.047Z,5.97
2017-12-31T08:22:05.507Z,8.10
2017-12-31T08:24:33.042Z,7.07
2017-12-31T08:27:00.450Z,8.40
2017-12-31T08:29:28.296Z,6.90
2017-12-31T08:31:55.715Z,6.93
2017-12-31T08:34:23.147Z,7.30
2017-12-31T08:36:50.609Z,8.43
2017-12-31T08:39:18.060Z,8.43
2017-12-31T08:41:45.464Z,7.40
2017-12-31T08:44:13.963Z,9.07
2017-12-31T08:46:41.383Z,10.30
2017-12-31T08:49:08.982Z,6.83
2017-12-31T08:51:36.806Z,8.40
2017-12-31T08:54:04.234Z,7.00
2017-12-31T08:56:31.654Z,8.27
2017-12-31T08:58:59.480Z,9.63
2017-12-31T09:01:27.586Z,9.67
2017-12-31T09:03:55.020Z,9.17
2017-12-31T09:06:22.546Z,9.17
2017-12-31T09:08:49.963Z,10.10
2017-12-31T09:11:17.816Z,9.43
2017-12-31T09:13:45.244Z,9.60
2017-12-31T09:16:12.679Z,8.77
2017-12-31T09:18:40.125Z,8.00
2017-12-31T09:21:07.637Z,8.33
2017-12-31T09:23:35.059Z,10.40
2017-12-31T09:26:02.531Z,10.27
2017-12-31T09:28:30.131Z,11.30
2017-12-31T09:30:57.571Z,8.70
2017-12-31T09:33:25.523Z,9.40
2017-12-31T09:35:52.941Z,8.80
2017-12-31T09:38:20.366Z,9.00
2017-12-31T09:40:47.971Z,12.70
2017-12-31T09:43:15.447Z,9.67
2017-12-31T09:45:43.371Z,9.97
2017-12-31T09:48:11.023Z,9.93
2017-12-31T09:50:38.439Z,9.17
2017-12-31T09:53:06.264Z,9.50
2017-12-31T09:55:33.754Z,10.03
2017-12-31T09:58:01.155Z,10.33
2017-12-31T10:00:28.583Z,8.97
2017-12-31T10:02:56.057Z,9.60
2017-12-31T10:05:23.495Z,10.17
2017-12-31T10:07:50.920Z,8.80
2017-12-31T10:10:18.747Z,9.40
2017-12-31T10:12:46.175Z,9.80
2017-12-31T10:15:13.624Z,8.50
2017-12-31T10:17:41.059Z,10.57
2017-12-31T10:20:09.040Z,9.13
2017-12-31T10:22:36.479Z,10.40
2017-12-31T10:25:04.475Z,9.93
2017-12-31T10:27:31.897Z,9.90
2017-12-31T10:29:59.720Z,10.87
2017-12-31T10:32:27.175Z,11.33
2017-12-31T10:34:54.612Z,10.83
2017-12-31T10:37:22.039Z,11.80
2017-12-31T10:39:49.875Z,10.90
2017-12-31T10:42:17.295Z,11.97
2017-12-31T10:44:44.720Z,9.80
2017-12-31T10:47:13.327Z,10.40
2017-12-31T10:49:40.760Z,10.87
2017-12-31T10:52:08.214Z,10.97
2017-12-31T10:54:35.647Z,10.63
2017-12-31T10:57:04.191Z,10.57
2017-12-31T10:59:31.722Z,11.93
2017-12-31T11:01:59.211Z,10.33
2017-12-31T11:04:26.660Z,11.17
2017-12-31T11:06:54.398Z,8.77
2017-12-31T11:09:21.832Z,9.50
2017-12-31T11:11:49.287Z,18.00
2017-12-31T11:14:16.739Z,7.73
2017-12-31T11:16:44.273Z,9.10
2017-12-31T11:19:11.708Z,9.77
2017-12-31T11:21:39.144Z,7.23
2017-12-31T11:24:07.533Z,7.93
2017-12-31T11:26:35.061Z,7.97
2017-12-31T11:29:02.469Z,8.13
2017-12-31T11:31:29.908Z,8.17
2017-12-31T11:33:57.324Z,7.60
2017-12-31T11:36:24.747Z,8.50
2017-12-31T11:38:52.567Z,8.33
2017-12-31T11:41:20.016Z,8.63
2017-12-31T11:43:47.452Z,8.53
2017-12-31T11:46:15.266Z,8.33
2017-12-31T11:48:42.704Z,8.43
2017-12-31T11:51:10.146Z,7.67
2017-12-31T11:53:37.559Z,8.20
2017-12-31T11:56:05.047Z,8.17
2017-12-31T11:58:32.475Z,7.00
2017-12-31T12:00:59.904Z,8.77
2017-12-31T12:03:27.736Z,9.33
2017-12-31T12:05:55.160Z,8.53
2017-12-31T12:08:22.610Z,8.33
2017-12-31T12:10:50.380Z,9.20
2017-12-31T12:13:17.820Z,9.40
2017-12-31T12:15:45.288Z,8.70
2017-12-31T12:18:12.712Z,8.80
2017-12-31T12:20:40.534Z,8.33
2017-12-31T12:23:07.967Z,7.60
2017-12-31T12:25:35.402Z,9.10
2017-12-31T12:28:03.812Z,8.60
2017-12-31T12:30:31.246Z,9.50
2017-12-31T12:32:58.671Z,8.90
2017-12-31T12:35:26.500Z,9.97
2017-12-31T12:37:53.952Z,8.30
2017-12-31T12:40:21.523Z,8.30
2017-12-31T12:42:48.955Z,9.07
2017-12-31T12:45:16.387Z,10.67
2017-12-31T12:47:43.814Z,8.67
2017-12-31T12:50:11.638Z,8.33
2017-12-31T12:52:39.822Z,9.33
2017-12-31T12:55:07.236Z,6.90
2017-12-31T12:57:34.654Z,9.30
2017-12-31T13:00:02.680Z,8.23
2017-12-31T13:02:32.289Z,7.73
2017-12-31T13:04:59.740Z,8.70
2017-12-31T13:07:27.196Z,10.10
2017-12-31T13:09:54.654Z,7.60
2017-12-31T13:12:22.088Z,9.33
2017-12-31T13:14:50.489Z,9.20
2017-12-31T13:17:17.936Z,10.03
2017-12-31T13:19:45.388Z,8.77
2017-12-31T13:22:12.857Z,8.17
2017-12-31T13:24:40.556Z,8.90
2017-12-31T13:27:08.379Z,8.10
2017-12-31T13:29:35.849Z,6.47
2017-12-31T13:32:03.410Z,7.43
2017-12-31T13:34:30.832Z,7.93
2017-12-31T13:36:58.284Z,8.47
2017-12-31T13:39:25.871Z,8.60
2017-12-31T13:41:53.295Z,8.43
2017-12-31T13:44:20.736Z,8.10
2017-12-31T13:46:48.208Z,8.67
2017-12-31T13:49:15.643Z,9.00
2017-12-31T13:51:43.075Z,8.13
2017-12-31T13:54:10.931Z,7.40
2017-12-31T13:56:38.785Z,7.60
2017-12-31T13:59:06.204Z,7.30
2017-12-31T14:01:33.779Z,7.50
2017-12-31T14:04:01.212Z,6.80
2017-12-31T14:06:28.645Z,7.80
2017-12-31T14:08:56.080Z,7.40
2017-12-31T14:11:23.903Z,16.40
2017-12-31T14:13:51.326Z,8.20
2017-12-31T14:16:19.609Z,9.10
2017-12-31T14:18:47.196Z,9.30
2017-12-31T14:21:14.620Z,9.60
2017-12-31T14:23:42.051Z,9.60
2017-12-31T14:26:09.523Z,10.17
2017-12-31T14:28:36.955Z,10.10
2017-12-31T14:31:04.394Z,10.70
2017-12-31T14:33:32.227Z,10.03
2017-12-31T14:35:59.656Z,13.03
2017-12-31T14:38:27.091Z,11.90
2017-12-31T14:40:54.890Z,13.10
2017-12-31T14:43:22.320Z,13.33
2017-12-31T14:45:49.759Z,13.97
2017-12-31T14:48:17.200Z,12.87
2017-12-31T14:50:45.049Z,14.20
2017-12-31T14:53:12.511Z,14.80
2017-12-31T14:55:39.935Z,13.80
2017-12-31T14:58:07.375Z,12.17
2017-12-31T15:00:35.104Z,13.37
2017-12-31T15:03:02.535Z,14.20
2017-12-31T15:05:30.355Z,14.47
2017-12-31T15:07:57.803Z,14.93
2017-12-31T15:10:25.233Z,10.30
2017-12-31T15:12:52.660Z,11.03
2017-12-31T15:15:20.499Z,11.87
2017-12-31T15:17:47.951Z,13.60
2017-12-31T15:20:15.629Z,12.80
2017-12-31T15:22:43.020Z,11.13
2017-12-31T15:25:10.443Z,10.50
2017-12-31T15:27:37.880Z,8.73
2017-12-31T15:30:05.322Z,10.30
2017-12-31T15:32:32.756Z,9.60
2017-12-31T15:35:00.421Z,10.83
2017-12-31T15:37:27.875Z,10.07
2017-12-31T15:39:55.323Z,11.20
2017-12-31T15:42:22.751Z,14.07
2017-12-31T15:44:50.569Z,13.13
2017-12-31T15:47:17.997Z,9.40
2017-12-31T15:49:45.764Z,12.00
2017-12-31T15:52:13.191Z,11.93
2017-12-31T15:54:41.500Z,14.70
2017-12-31T15:57:08.933Z,13.90
2017-12-31T15:59:36.384Z,14.33
2017-12-31T16:02:04.991Z,14.50
2017-12-31T16:04:32.416Z,14.30
2017-12-31T16:06:59.838Z,16.50
2017-12-31T16:09:27.674Z,18.13
2017-12-31T16:11:55.095Z,18.80
2017-12-31T16:14:22.522Z,19.90
2017-12-31T16:16:51.355Z,22.93
2017-12-31T16:19:18.779Z,20.40
2017-12-31T16:21:46.223Z,19.60
2017-12-31T16:24:14.060Z,36.73
2017-12-31T16:26:41.495Z,29.40
2017-12-31T16:29:08.933Z,26.53
2017-12-31T16:31:36.544Z,17.53
2017-12-31T16:36:38.487Z,10.57
2017-12-31T16:39:05.927Z,9.07
2017-12-31T16:41:33.351Z,9.90
2017-12-31T16:44:00.787Z,9.00
2017-12-31T16:46:28.599Z,18.97
2017-12-31T16:48:56.027Z,11.53
2017-12-31T16:51:23.767Z,7.93
2017-12-31T16:53:51.847Z,7.17
2017-12-31T16:56:19.269Z,7.70
2017-12-31T16:58:46.719Z,10.23
2017-12-31T17:01:14.144Z,9.13
2017-12-31T17:03:41.572Z,9.97
2017-12-31T17:06:09.006Z,11.77
2017-12-31T17:08:36.822Z,17.13
2017-12-31T17:11:04.253Z,12.83
2017-12-31T17:13:31.782Z,14.90
2017-12-31T17:15:59.607Z,13.23
2017-12-31T17:18:27.040Z,19.90
2017-12-31T17:20:54.492Z,44.77
2017-12-31T17:23:21.919Z,11.00
2017-12-31T17:25:49.752Z,17.97
2017-12-31T17:28:17.179Z,18.20
2017-12-31T17:30:44.612Z,10.00
2017-12-31T17:33:12.068Z,16.10
2017-12-31T17:35:39.496Z,18.80
2017-12-31T17:38:07.327Z,18.43
2017-12-31T17:40:34.763Z,15.70
2017-12-31T17:43:02.187Z,11.50
2017-12-31T17:45:29.625Z,17.77
2017-12-31T17:47:57.451Z,15.10
2017-12-31T17:50:24.882Z,15.03
2017-12-31T17:52:52.354Z,17.50
2017-12-31T17:55:19.813Z,15.77
2017-12-31T17:57:47.243Z,18.50
2017-12-31T18:00:14.671Z,27.10
2017-12-31T18:02:43.330Z,15.30
2017-12-31T18:05:10.756Z,16.10
2017-12-31T18:07:38.200Z,14.80
2017-12-31T18:10:05.740Z,14.07
2017-12-31T18:12:33.167Z,23.90
2017-12-31T18:15:01.003Z,30.80
2017-12-31T18:17:28.460Z,32.00
2017-12-31T18:19:55.893Z,57.80
2017-12-31T18:22:23.329Z,97.60
2017-12-31T18:24:50.782Z,191.67
2017-12-31T18:27:18.221Z,258.17
2017-12-31T18:29:45.651Z,274.83
2017-12-31T18:32:13.507Z,185.03
2017-12-31T18:34:40.935Z,116.43
2017-12-31T18:37:08.371Z,67.93
2017-12-31T18:39:36.652Z,69.47
2017-12-31T18:42:04.087Z,113.70
2017-12-31T18:44:31.523Z,127.37
2017-12-31T18:46:59.356Z,82.27
2017-12-31T18:49:26.955Z,99.80
2017-12-31T18:51:54.396Z,101.73
2017-12-31T18:54:22.225Z,71.70
2017-12-31T18:56:49.827Z,51.87
2017-12-31T18:59:17.259Z,38.63
2017-12-31T19:01:44.687Z,36.20
2017-12-31T19:04:12.143Z,37.30
2017-12-31T19:06:39.584Z,38.43
2017-12-31T19:09:07.012Z,47.80
2017-12-31T19:11:34.438Z,45.63
2017-12-31T19:14:02.264Z,42.57
2017-12-31T19:16:30.156Z,42.80
2017-12-31T19:18:57.590Z,49.63
2017-12-31T19:21:25.028Z,51.73
2017-12-31T19:23:53.607Z,60.53
2017-12-31T19:26:21.046Z,66.53
2017-12-31T19:28:48.474Z,73.73
2017-12-31T19:31:16.324Z,59.80
2017-12-31T19:33:43.751Z,59.37
2017-12-31T19:36:11.186Z,70.60
2017-12-31T19:38:38.623Z,63.07
2017-12-31T19:41:06.058Z,69.70
2017-12-31T19:43:33.889Z,57.43
2017-12-31T19:46:01.357Z,69.57
2017-12-31T19:48:28.770Z,88.47
2017-12-31T19:50:56.208Z,57.17
2017-12-31T19:53:23.636Z,124.33
2017-12-31T19:55:51.468Z,90.50
2017-12-31T19:58:18.908Z,69.00
2017-12-31T20:00:46.331Z,98.53
2017-12-31T20:03:14.114Z,76.63
2017-12-31T20:05:41.547Z,199.80
2017-12-31T20:08:08.979Z,108.53
2017-12-31T20:10:36.816Z,79.03
2017-12-31T20:13:04.248Z,87.47
2017-12-31T20:15:31.683Z,87.67
2017-12-31T20:17:59.135Z,145.53
2017-12-31T20:20:26.566Z,210.47
2017-12-31T20:22:54.394Z,89.60
2017-12-31T20:25:21.831Z,89.57
2017-12-31T20:27:49.260Z,79.50
2017-12-31T20:30:16.705Z,65.77
2017-12-31T20:32:44.527Z,69.50
2017-12-31T20:35:11.976Z,80.70
2017-12-31T20:37:39.413Z,85.37
2017-12-31T20:40:06.847Z,118.67
2017-12-31T20:42:34.309Z,86.93
2017-12-31T20:45:01.743Z,97.30
2017-12-31T20:47:29.180Z,97.47
2017-12-31T20:49:57.035Z,136.87
2017-12-31T20:52:24.467Z,75.57
2017-12-31T20:54:51.905Z,61.87
2017-12-31T20:57:19.361Z,65.80
2017-12-31T20:59:46.823Z,83.57
2017-12-31T21:02:14.251Z,67.50
2017-12-31T21:04:41.704Z,66.50
2017-12-31T21:07:09.151Z,118.70
2017-12-31T21:09:36.974Z,84.77
2017-12-31T21:12:04.411Z,53.13
2017-12-31T21:14:31.857Z,56.53
2017-12-31T21:16:59.283Z,61.77
2017-12-31T21:19:27.795Z,58.70
2017-12-31T21:21:55.235Z,64.57
2017-12-31T21:24:22.664Z,60.13
2017-12-31T21:26:50.115Z,63.70
2017-12-31T21:29:17.548Z,65.90
2017-12-31T21:31:44.978Z,56.73
2017-12-31T21:34:12.459Z,63.13
2017-12-31T21:36:39.887Z,74.13
2017-12-31T21:39:07.340Z,80.17
2017-12-31T21:41:34.775Z,80.47
2017-12-31T21:44:02.216Z,67.27
2017-12-31T21:46:29.668Z,66.17
2017-12-31T21:48:57.096Z,68.47
2017-12-31T21:51:24.919Z,82.03
2017-12-31T21:53:52.355Z,74.50
2017-12-31T21:56:19.796Z,79.77
2017-12-31T21:58:47.227Z,80.63
2017-12-31T22:01:15.081Z,73.13
2017-12-31T22:03:42.508Z,70.57
2017-12-31T22:06:09.939Z,62.93
2017-12-31T22:08:37.383Z,61.60
2017-12-31T22:11:04.996Z,174.60
2017-12-31T22:13:32.436Z,95.10
2017-12-31T22:15:59.868Z,69.93
2017-12-31T22:18:27.304Z,83.00
2017-12-31T22:20:54.743Z,91.03
2017-12-31T22:23:22.580Z,53.70
2017-12-31T22:25:50.011Z,63.50
2017-12-31T22:28:17.447Z,67.43
2017-12-31T22:30:44.892Z,60.57
2017-12-31T22:33:12.315Z,61.20
2017-12-31T22:35:40.739Z,55.13
2017-12-31T22:38:08.195Z,60.93
2017-12-31T22:40:35.627Z,58.37
2017-12-31T22:43:03.051Z,54.40
2017-12-31T22:45:30.927Z,65.07
2017-12-31T22:47:58.747Z,46.00
2017-12-31T22:50:26.185Z,54.10
2017-12-31T22:52:53.617Z,42.97
2017-12-31T22:55:21.036Z,46.17
2017-12-31T22:57:48.583Z,53.43
2017-12-31T23:00:16.022Z,74.53
2017-12-31T23:02:43.456Z,229.23
2017-12-31T23:05:10.907Z,240.87
2017-12-31T23:07:38.347Z,490.17
2017-12-31T23:10:05.784Z,744.03
2017-12-31T23:12:33.632Z,725.80
2017-12-31T23:15:01.069Z,717.87
2017-12-31T23:17:28.502Z,716.67
2017-12-31T23:19:55.971Z,648.80
2017-12-31T23:22:23.402Z,653.93
2017-12-31T23:24:50.844Z,590.10
2017-12-31T23:27:18.299Z,657.80
2017-12-31T23:29:45.735Z,658.37
2017-12-31T23:32:13.176Z,663.30
2017-12-31T23:34:40.876Z,714.50
2017-12-31T23:37:08.384Z,484.47
2017-12-31T23:39:35.817Z,607.43
2017-12-31T23:42:03.271Z,582.10
2017-12-31T23:44:30.704Z,505.17
2017-12-31T23:46:58.139Z,555.27
2017-12-31T23:49:25.596Z,615.50
2017-12-31T23:51:53.083Z,460.17
2017-12-31T23:54:20.521Z,462.40
2017-12-31T23:56:47.991Z,473.43
2017-12-31T23:59:15.426Z,441.70
